Fall River, KS

8:04 AM CDT on October 22, 2014 (GMT -0500)
HADS VERDIGRIS RIVER AT TORONTO KS US USARMY-COE | Change Station
CLOSE
Current Station
Personal Weather Station
Location: Toronto, KS
Elevation: 960 ft
Nearby Weather Stations

Elev 960 ft 37.74 °N, 95.93 °W | Updated 34 minutes ago

Mostly Cloudy
Mostly Cloudy
55 °F
Feels Like 55 °F
N
2
Wind Variable Wind from SSW
Gusts 0.0 mph

Today
High -- | Low -- °F
--% Chance of Precip.
Yesterday
High -- | Low -- °F
Precip. -- in
7:39 AM 6:37 PM
Waning Crescent, 2% visible
Pressure 30.14 in
Visibility 10.0 miles
Clouds Scattered Clouds 4000 ft
Mostly Cloudy 7000 ft
Dew Point 51 °F
Humidity 85%
Rainfall 0.00 in
Snow Depth Not available.
UV 0 out of 12
Pollen 3.60 out of 12
Air Quality Not available.
Flu Activity No Activity
METAR KCNU 221252Z AUTO 12008KT 10SM SCT040 BKN070 13/11 A3016 RMK AO2 SLP206 T01330106

More Conditions Fewer Conditions

Pressure 30.14 in
Visibility 10.0 miles
Clouds Scattered Clouds 4000 ft
Mostly Cloudy 7000 ft
Dew Point 51 °F
Humidity 85%
Rainfall 0.00 in
Snow Depth Not available.
UV 0 out of 12
Pollen 3.60 out of 12
Air Quality Not available.
Flu Activity No Activity
METAR KCNU 221252Z AUTO 12008KT 10SM SCT040 BKN070 13/11 A3016 RMK AO2 SLP206 T01330106

More Conditions Fewer Conditions

10-Day Weather Forecast

Almanac

Astronomy

Oct. 22, 2014 Rise Set
Actual Time 7:39 AM CDT 6:37 PM CDT
Civil Twilight 7:12 AM CDT 7:04 PM CDT
Nautical Twilight 6:41 AM CDT 7:34 PM CDT
Astronomical Twilight 6:11 AM CDT 8:04 PM CDT
Moon 6:22 AM CDT 6:03 PM CDT
Length of Visible Light 11h 51m
Length of Day
10h 58m
Tomorrow will be 2m 15s shorter.
Waning Crescent, 2% of the Moon is Illuminated
Today
Waning Crescent
Oct 23
New
Oct 30
First Quarter
Nov 6
Full
Nov 14
Last Quarter

Today's Extremes

State Highs State Lows

Community

WunderPhotos

Upload Photos

1,763,911 photos uploaded!

Nearby

Snow Depth

Station Depth Elevation
No new snow has been reported.

Earthquake Activity

City Distance Mag. Time & Date
Anthony, Kansas 109 miles 3.0 6:55 AM CDT
2014-10-21
Medford, Oklahoma 114 miles 3.1 3:55 AM CDT
2014-10-21
Stillwater, Oklahoma 113 miles 2.5 11:26 PM CDT
2014-10-20
Medford, Oklahoma 118 miles 3.2 7:46 PM CDT
2014-10-20
Minimum magnitude displayed is 2.5.

Coastal Water Temperatures

Place Temperature
No Stations Reporting

Nearby Weather Stations